Nearby METAR Reports

 

KFNL - Ft Collins/Lovel, Colorado, USA
Distance from station: E 23mi, 37km
Updated: Tue, 31-Mar-2020 3:56pm MDT
Overcast
Overcast
 Wind from W
Wind: W 15 mph , 24 km/h, Gust: 21 mph , 33 km/h
Temperature: 64°F , 18°C
Dew Point: 23°F , -5°C
Humidity: 21%
Barometer: 29.84 inHg , 1010.5 hPa
Clouds: Overcast
Visibility: 10 miles , 16 km
Cloud details: Overcast 10000 ft
2020/03/31 21:56 KFNL 312156Z 27013G18KT 10SM OVC100 18/M05 A2984 RMK AO2 SLP080 T01781050
KLMO - Longmont/Vbrand, Colorado, USA
Distance from station: SE 26mi, 41km
Updated: Tue, 31-Mar-2020 3:55pm MDT
Clear
Clear
 Wind from WSW
Wind: WSW 10 mph , 17 km/h, Gust: 24 mph , 39 km/h
Temperature: 64°F , 18°C
Dew Point: 19°F , -7°C
Humidity: 18%
Barometer: 29.86 inHg , 1011.2 hPa
Clouds: Clear
Visibility: 10 miles , 16 km
2020/03/31 21:55 KLMO 312155Z AUTO 24009G21KT 10SM CLR 18/M07 A2986 RMK AO2 T01831069
 
KBDU - Boulder Muni, Colorado, USA
Distance from station: SSE 32mi, 52km
Updated: Tue, 31-Mar-2020 3:54pm MDT
Mostly cloudy
Mostly cloudy
 Wind from NNE
Wind: NNE 7 mph , 11 km/h
Temperature: 66°F , 19°C
Dew Point: 21°F , -6°C
Humidity: 18%
Barometer: 29.85 inHg , 1010.8 hPa
Clouds: Mostly cloudy
Visibility: 10 miles , 16 km
Cloud details: Mostly cloudy 11000 ft
2020/03/31 21:54 KBDU 312154Z AUTO 03006KT 10SM BKN110 19/M06 A2985 RMK AO2
KEIK - Erie Muni, Colorado, USA
Distance from station: SE 38mi, 61km
Updated: Tue, 31-Mar-2020 4:05pm MDT
Clear
Clear
 Wind from W
Wind: W 20 mph , 31 km/h, Gust: 28 mph , 44 km/h
Temperature: 68°F , 20°C
Dew Point: 16°F , -9°C
Humidity: 13%
Barometer: 29.90 inHg , 1012.5 hPa
Clouds: Clear
Visibility: 10 miles , 16 km
2020/03/31 22:05 KEIK 312205Z AUTO 27017G24KT 10SM CLR 20/M09 A2990 RMK AO2 T02001093
 
KBJC - Broomfield/Jeffc, Colorado, USA
Distance from station: SSE 44mi, 70km
Updated: Tue, 31-Mar-2020 3:48pm MDT
Partly cloudy
Partly cloudy
 Wind from WNW
Wind: WNW 16 mph , 26 km/h, Gust: 28 mph , 44 km/h
Temperature: 66°F , 19°C
Dew Point: 19°F , -7°C
Humidity: 17%
Barometer: 29.86 inHg , 1011.2 hPa
Clouds: Partly cloudy
Visibility: 45 miles , 72 km
Cloud details: Partly cloudy 8000 ft
Partly cloudy 14000 ft
2020/03/31 21:48 KBJC 312148Z 30014G24KT 45SM SCT080 SCT140 19/M07 A2986
KGXY - Greeley/Weld, Colorado, USA
Distance from station: E 44mi, 71km
Updated: Tue, 31-Mar-2020 3:56pm MDT
Partly cloudy
Partly cloudy
 Wind from ENE
Wind: ENE 5 mph , 7 km/h
Temperature: 63°F , 17°C
Dew Point: 25°F , -4°C
Humidity: 24%
Barometer: 29.85 inHg , 1010.8 hPa
Clouds: Partly cloudy
Visibility: 10 miles , 16 km
Cloud details: Partly cloudy 11000 ft
2020/03/31 21:56 KGXY 312156Z AUTO 06004KT 10SM SCT110 17/M04 A2985 RMK AO2 SLP106 T01721044
 
K33V - Walden, Colorado, USA
Distance from station: WNW 48mi, 77km
Updated: Tue, 31-Mar-2020 3:35pm MDT
Mostly cloudy
Mostly cloudy
 Wind from SW
Wind: SW 14 mph , 22 km/h, Gust: 21 mph , 33 km/h
Temperature: 50°F , 10°C
Wind Chill: 45°F , 7°C
Dew Point: 19°F , -7°C
Humidity: 30%
Barometer: 30.00 inHg , 1015.9 hPa
Clouds: Mostly cloudy
Visibility: 10 miles , 16 km
Cloud details: Mostly cloudy 7000 ft
2020/03/31 21:35 K33V 312135Z AUTO 23012G18KT 10SM BKN070 10/M07 A3000 RMK AO1
K0CO - Berthoud Pass, Colorado, USA
Distance from station: SSW 49mi, 79km
Updated: Sat, 28-Mar-2020 4:24pm MDT
NOT Current
Overcast
Overcast
 Wind from NW
Wind: NW 40 mph , 65 km/h, Gust: 48 mph , 78 km/h
Temperature: 7°F , -14°C
Wind Chill: -19°F , -28°C
Dew Point: -4°F , -20°C
Humidity: 61%
Barometer: 29.86 inHg , 1011.2 hPa
Clouds: Overcast
Visibility: 3/4 mile , 1.2 km
Cloud details: Mostly cloudy 400 ft
Overcast 1000 ft
2020/03/28 22:24 K0CO 282224Z AUTO 31035G42KT 3/4SM BKN004 OVC010 M14/M20 A2986 RMK AO2 PWINO